createdAt,value
2023-10-01T00:01:04.856Z,17.28
2023-10-01T00:03:33.203Z,17.28
2023-10-01T00:08:18.085Z,17.31
2023-10-01T00:10:45.682Z,17.27
2023-10-01T00:13:13.589Z,17.27
2023-10-01T00:15:41.573Z,17.27
2023-10-01T00:18:09.228Z,17.26
2023-10-01T00:20:36.810Z,17.26
2023-10-01T00:23:05.264Z,17.24
2023-10-01T00:25:34.400Z,17.22
2023-10-01T00:28:02.973Z,17.18
2023-10-01T00:30:34.695Z,17.14
2023-10-01T00:33:07.040Z,17.13
2023-10-01T00:35:35.114Z,17.11
2023-10-01T00:38:02.617Z,17.09
2023-10-01T00:40:30.493Z,17.06
2023-10-01T00:42:59.736Z,17.05
2023-10-01T00:45:27.308Z,17.02
2023-10-01T00:47:54.946Z,17.01
2023-10-01T00:50:25.906Z,17.01
2023-10-01T00:52:54.466Z,17.01
2023-10-01T00:55:22.888Z,17.00
2023-10-01T00:57:51.150Z,17.01
2023-10-01T01:00:21.248Z,17.02
2023-10-01T01:02:59.970Z,17.02
2023-10-01T01:05:39.751Z,17.02
2023-10-01T01:08:23.684Z,17.01
2023-10-01T01:10:52.945Z,16.99
2023-10-01T01:13:25.528Z,17.00
2023-10-01T01:15:54.475Z,17.01
2023-10-01T01:18:23.855Z,17.03
2023-10-01T01:21:00.179Z,17.03
2023-10-01T01:23:31.442Z,17.01
2023-10-01T01:25:59.286Z,17.00
2023-10-01T01:28:32.729Z,16.96
2023-10-01T01:31:01.959Z,16.92
2023-10-01T01:33:41.912Z,16.91
2023-10-01T01:36:13.973Z,16.90
2023-10-01T01:39:11.641Z,16.87
2023-10-01T01:41:49.465Z,16.83
2023-10-01T01:44:18.079Z,16.82
2023-10-01T01:47:01.175Z,16.82
2023-10-01T01:49:29.384Z,16.80
2023-10-01T01:52:01.702Z,16.78
2023-10-01T01:54:36.069Z,16.76
2023-10-01T01:57:04.360Z,16.73
2023-10-01T01:59:33.096Z,16.68
2023-10-01T02:02:00.938Z,16.65
2023-10-01T02:04:28.695Z,16.63
2023-10-01T02:06:57.499Z,16.62
2023-10-01T02:09:26.693Z,16.61
2023-10-01T02:11:55.274Z,16.61
2023-10-01T02:14:31.515Z,16.62
2023-10-01T02:17:16.821Z,16.59
2023-10-01T02:19:51.070Z,16.54
2023-10-01T02:22:19.028Z,16.50
2023-10-01T02:24:56.031Z,16.46
2023-10-01T02:27:28.230Z,16.43
2023-10-01T02:30:14.941Z,16.43
2023-10-01T02:33:11.542Z,16.41
2023-10-01T02:35:42.377Z,16.39
2023-10-01T02:38:31.602Z,16.37
2023-10-01T02:40:59.768Z,16.36
2023-10-01T02:43:27.653Z,16.35
2023-10-01T02:45:55.297Z,16.33
2023-10-01T02:48:24.043Z,16.29
2023-10-01T02:50:53.795Z,16.23
2023-10-01T02:53:24.797Z,16.19
2023-10-01T02:56:03.700Z,16.16
2023-10-01T02:58:33.754Z,16.11
2023-10-01T03:01:05.778Z,16.07
2023-10-01T03:03:34.316Z,16.03
2023-10-01T03:06:10.498Z,15.98
2023-10-01T03:08:42.688Z,15.92
2023-10-01T03:11:13.012Z,15.86
2023-10-01T03:13:40.807Z,15.82
2023-10-01T03:16:26.938Z,15.77
2023-10-01T03:18:56.391Z,15.69
2023-10-01T03:22:02.498Z,15.61
2023-10-01T03:24:30.938Z,15.52
2023-10-01T03:27:00.918Z,15.43
2023-10-01T03:29:38.293Z,15.37
2023-10-01T03:32:25.721Z,15.30
2023-10-01T03:34:54.325Z,15.25
2023-10-01T03:37:29.208Z,15.20
2023-10-01T03:40:07.373Z,15.14
2023-10-01T03:42:38.242Z,15.08
2023-10-01T03:45:12.952Z,15.02
2023-10-01T03:47:42.935Z,14.98
2023-10-01T03:50:11.237Z,14.91
2023-10-01T03:52:42.452Z,14.85
2023-10-01T03:55:29.270Z,14.79
2023-10-01T03:58:05.749Z,14.69
2023-10-01T04:00:42.672Z,14.61
2023-10-01T04:03:15.669Z,14.52
2023-10-01T04:05:47.611Z,14.41
2023-10-01T04:08:18.485Z,14.30
2023-10-01T04:10:52.416Z,14.19
2023-10-01T04:13:25.225Z,14.10
2023-10-01T04:16:07.040Z,14.04
2023-10-01T04:18:35.414Z,13.97
2023-10-01T04:21:02.940Z,13.91
2023-10-01T04:23:34.710Z,13.86
2023-10-01T04:26:07.920Z,13.79
2023-10-01T04:28:37.399Z,13.74
2023-10-01T04:31:11.048Z,13.68
2023-10-01T04:33:43.880Z,13.63
2023-10-01T04:36:12.625Z,13.57
2023-10-01T04:38:43.215Z,13.53
2023-10-01T04:41:15.020Z,13.50
2023-10-01T04:43:53.311Z,13.47
2023-10-01T04:46:22.079Z,13.44
2023-10-01T04:48:49.813Z,13.42
2023-10-01T04:51:18.813Z,13.44
2023-10-01T04:53:47.987Z,13.46
2023-10-01T04:56:27.045Z,13.47
2023-10-01T04:58:56.366Z,13.50
2023-10-01T05:01:25.904Z,13.52
2023-10-01T05:03:54.173Z,13.54
2023-10-01T05:06:22.040Z,13.59
2023-10-01T05:09:00.003Z,13.62
2023-10-01T05:11:34.457Z,13.66
2023-10-01T05:14:06.020Z,13.69
2023-10-01T05:16:39.857Z,13.71
2023-10-01T05:19:16.677Z,13.72
2023-10-01T05:28:00.486Z,13.83
2023-10-01T05:30:36.307Z,13.83
2023-10-01T05:33:07.562Z,13.88
2023-10-01T05:35:46.181Z,13.94
2023-10-01T05:38:16.327Z,14.00
2023-10-01T05:40:46.331Z,14.06
2023-10-01T05:43:17.516Z,14.11
2023-10-01T05:45:55.860Z,14.18
2023-10-01T05:48:26.979Z,14.24
2023-10-01T05:50:58.240Z,14.29
2023-10-01T05:53:26.307Z,14.35
2023-10-01T05:55:54.013Z,14.40
2023-10-01T05:58:22.694Z,14.47
2023-10-01T06:00:59.848Z,14.54
2023-10-01T06:03:27.816Z,14.60
2023-10-01T06:06:09.661Z,14.63
2023-10-01T06:09:03.586Z,14.66
2023-10-01T06:11:40.438Z,14.67
2023-10-01T06:14:08.863Z,14.71
2023-10-01T06:16:39.542Z,14.74
2023-10-01T06:19:13.377Z,14.78
2023-10-01T06:21:42.647Z,14.83
2023-10-01T06:24:12.338Z,14.86
2023-10-01T06:26:47.607Z,14.88
2023-10-01T06:29:15.276Z,14.91
2023-10-01T06:31:50.849Z,14.95
2023-10-01T06:34:21.227Z,15.00
2023-10-01T06:36:52.258Z,15.04
2023-10-01T06:39:24.870Z,15.10
2023-10-01T06:41:53.768Z,15.18
2023-10-01T06:44:23.380Z,15.24
2023-10-01T06:46:52.504Z,15.27
2023-10-01T06:49:21.339Z,15.28
2023-10-01T06:51:48.873Z,15.28
2023-10-01T06:54:19.502Z,15.27
2023-10-01T06:56:49.034Z,15.26
2023-10-01T06:59:18.845Z,15.27
2023-10-01T07:01:49.690Z,15.28
2023-10-01T07:04:21.141Z,15.28
2023-10-01T07:06:52.038Z,15.27
2023-10-01T07:09:29.670Z,15.25
2023-10-01T07:11:57.990Z,15.23
2023-10-01T07:14:45.269Z,15.24
2023-10-01T07:17:17.412Z,15.24
2023-10-01T07:19:46.812Z,15.24
2023-10-01T07:22:21.457Z,15.25
2023-10-01T07:24:49.693Z,15.24
2023-10-01T07:27:19.053Z,15.21
2023-10-01T07:29:46.659Z,15.17
2023-10-01T07:32:14.215Z,15.15
2023-10-01T07:34:48.871Z,15.11
2023-10-01T07:37:25.156Z,15.06
2023-10-01T07:40:10.217Z,15.04
2023-10-01T07:42:50.699Z,15.05
2023-10-01T07:45:18.634Z,15.02
2023-10-01T07:47:46.100Z,14.99
2023-10-01T07:50:18.439Z,14.99
2023-10-01T07:52:46.107Z,15.00
2023-10-01T07:55:31.935Z,14.98
2023-10-01T07:58:19.411Z,14.94
2023-10-01T08:00:48.742Z,14.92
2023-10-01T08:03:22.329Z,14.88
2023-10-01T08:05:49.952Z,14.83
2023-10-01T08:08:37.097Z,14.79
2023-10-01T08:11:05.148Z,14.76
2023-10-01T08:13:32.516Z,14.76
2023-10-01T08:16:00.196Z,14.75
2023-10-01T08:18:37.247Z,14.73
2023-10-01T08:21:05.435Z,14.72
2023-10-01T08:23:34.793Z,14.72
2023-10-01T08:26:22.445Z,14.73
2023-10-01T08:29:08.430Z,14.72
2023-10-01T08:32:05.005Z,14.70
2023-10-01T08:34:53.213Z,14.69
2023-10-01T08:37:24.392Z,14.71
2023-10-01T08:39:54.911Z,14.71
2023-10-01T08:42:23.777Z,14.69
2023-10-01T08:44:52.114Z,14.65
2023-10-01T08:47:24.006Z,14.60
2023-10-01T08:49:52.432Z,14.55
2023-10-01T08:52:21.068Z,14.52
2023-10-01T08:54:50.263Z,14.50
2023-10-01T08:57:19.659Z,14.49
2023-10-01T08:59:47.169Z,14.48
2023-10-01T09:02:20.402Z,14.46
2023-10-01T09:04:48.633Z,14.45
2023-10-01T09:07:19.840Z,14.46
2023-10-01T09:10:00.699Z,14.43
2023-10-01T09:12:28.091Z,14.41
2023-10-01T09:14:55.446Z,14.36
2023-10-01T09:17:29.431Z,14.30
2023-10-01T09:20:06.449Z,14.25
2023-10-01T09:22:34.078Z,14.22
2023-10-01T09:25:17.527Z,14.24
2023-10-01T09:28:05.543Z,14.24
2023-10-01T09:30:37.111Z,14.25
2023-10-01T09:33:16.265Z,14.25
2023-10-01T09:35:51.956Z,14.26
2023-10-01T09:38:28.759Z,14.30
2023-10-01T09:40:57.389Z,14.34
2023-10-01T09:43:31.930Z,14.39
2023-10-01T09:46:01.169Z,14.37
2023-10-01T09:48:32.268Z,14.31
2023-10-01T09:51:09.715Z,14.24
2023-10-01T09:53:45.660Z,14.21
2023-10-01T09:56:27.211Z,14.22
2023-10-01T09:59:03.231Z,14.23
2023-10-01T10:01:31.533Z,14.25
2023-10-01T10:04:00.950Z,14.26
2023-10-01T10:06:28.995Z,14.30
2023-10-01T10:09:05.602Z,14.34
2023-10-01T10:11:42.385Z,14.39
2023-10-01T10:14:25.930Z,14.43
2023-10-01T10:17:00.178Z,14.46
2023-10-01T10:19:28.212Z,14.42
2023-10-01T10:22:05.056Z,14.38
2023-10-01T10:24:33.494Z,14.34
2023-10-01T10:27:02.664Z,14.30
2023-10-01T10:29:50.459Z,14.29
2023-10-01T10:32:18.283Z,14.29
2023-10-01T10:35:15.372Z,14.30
2023-10-01T10:37:49.581Z,14.33
2023-10-01T10:40:20.126Z,14.38
2023-10-01T10:43:00.262Z,14.43
2023-10-01T10:45:54.351Z,14.51
2023-10-01T10:48:29.078Z,14.60
2023-10-01T10:53:31.171Z,14.74
2023-10-01T10:56:01.360Z,14.82
2023-10-01T10:58:30.140Z,14.87
2023-10-01T11:00:57.760Z,14.93
2023-10-01T11:03:42.494Z,15.00
2023-10-01T11:06:19.477Z,15.06
2023-10-01T11:08:53.248Z,15.10
2023-10-01T11:14:04.706Z,15.25
2023-10-01T11:16:35.268Z,15.31
2023-10-01T11:19:13.769Z,15.37
2023-10-01T11:21:45.557Z,15.44
2023-10-01T11:24:14.390Z,15.48
2023-10-01T11:27:03.865Z,15.52
2023-10-01T11:29:32.057Z,15.57
2023-10-01T11:32:00.164Z,15.64
2023-10-01T11:34:34.529Z,15.67
2023-10-01T11:37:13.038Z,15.69
2023-10-01T11:39:42.078Z,15.75
2023-10-01T11:42:21.316Z,15.83
2023-10-01T11:44:54.048Z,15.91
2023-10-01T11:47:35.458Z,15.94
2023-10-01T11:50:08.769Z,15.96
2023-10-01T11:52:38.273Z,15.96
2023-10-01T11:55:21.393Z,15.98
2023-10-01T11:57:54.924Z,16.01
2023-10-01T12:00:42.584Z,16.05
2023-10-01T12:03:12.596Z,16.08
2023-10-01T12:05:43.274Z,16.10
2023-10-01T12:08:11.450Z,16.15
2023-10-01T12:10:39.052Z,16.19
2023-10-01T12:13:09.093Z,16.23
2023-10-01T12:15:37.032Z,16.28
2023-10-01T12:18:09.179Z,16.32
2023-10-01T12:20:41.157Z,16.34
2023-10-01T12:23:15.293Z,16.33
2023-10-01T12:26:14.837Z,16.31
2023-10-01T12:29:08.385Z,16.28
2023-10-01T12:31:42.178Z,16.30
2023-10-01T12:34:09.703Z,16.35
2023-10-01T12:36:46.493Z,16.39
2023-10-01T12:39:13.987Z,16.43
2023-10-01T12:41:55.092Z,16.46
2023-10-01T12:44:29.150Z,16.47
2023-10-01T12:46:57.163Z,16.44
2023-10-01T12:49:24.626Z,16.41
2023-10-01T12:51:55.145Z,16.38
2023-10-01T12:54:29.234Z,16.34
2023-10-01T12:57:19.696Z,16.28
2023-10-01T13:00:05.868Z,16.23
2023-10-01T13:02:44.448Z,16.22
2023-10-01T13:05:20.624Z,16.23
2023-10-01T13:07:48.914Z,16.26
2023-10-01T13:10:17.932Z,16.29
2023-10-01T13:12:58.479Z,16.33
2023-10-01T13:15:32.367Z,16.36
2023-10-01T13:18:05.006Z,16.39
2023-10-01T13:20:35.477Z,16.40
2023-10-01T13:23:12.665Z,16.39
2023-10-01T13:25:47.692Z,16.38
2023-10-01T13:28:21.304Z,16.37
2023-10-01T13:31:01.013Z,16.36
2023-10-01T13:33:48.418Z,16.34
2023-10-01T13:36:24.673Z,16.33
2023-10-01T13:39:14.295Z,16.31
2023-10-01T13:42:03.636Z,16.29
2023-10-01T13:44:52.749Z,16.29
2023-10-01T13:47:38.837Z,16.29
2023-10-01T13:50:25.096Z,16.30
2023-10-01T13:53:11.250Z,16.32
2023-10-01T13:56:07.066Z,16.33
2023-10-01T13:58:53.396Z,16.35
2023-10-01T14:01:39.522Z,16.37
2023-10-01T14:04:29.820Z,16.39
2023-10-01T14:07:15.975Z,16.39
2023-10-01T14:09:50.056Z,16.40
2023-10-01T14:12:40.717Z,16.41
2023-10-01T14:15:22.574Z,16.40
2023-10-01T14:17:57.117Z,16.40
2023-10-01T14:21:00.715Z,16.38
2023-10-01T14:23:54.282Z,16.35
2023-10-01T14:26:40.669Z,16.32
2023-10-01T14:29:08.178Z,16.31
2023-10-01T14:31:51.672Z,16.30
2023-10-01T14:34:19.817Z,16.28
2023-10-01T14:36:47.763Z,16.27
2023-10-01T14:39:15.437Z,16.25
2023-10-01T14:41:43.893Z,16.23
2023-10-01T14:44:12.130Z,16.22
2023-10-01T14:46:42.612Z,16.20
2023-10-01T14:49:11.588Z,16.19
2023-10-01T14:51:40.751Z,16.17
2023-10-01T14:54:17.771Z,16.14
2023-10-01T14:56:47.164Z,16.12
2023-10-01T14:59:15.628Z,16.11
2023-10-01T15:01:43.103Z,16.09
2023-10-01T15:04:21.933Z,16.07
2023-10-01T15:06:58.797Z,16.04
2023-10-01T15:09:29.765Z,16.02
2023-10-01T15:11:57.486Z,15.99
2023-10-01T15:14:31.881Z,15.97
2023-10-01T15:17:09.413Z,15.95
2023-10-01T15:19:49.771Z,15.93
2023-10-01T15:22:20.715Z,15.91
2023-10-01T15:24:50.349Z,15.89
2023-10-01T15:27:27.808Z,15.87
2023-10-01T15:37:33.306Z,15.82
2023-10-01T15:40:03.271Z,15.77
2023-10-01T15:42:37.119Z,15.76
2023-10-01T15:45:18.468Z,15.75
2023-10-01T15:47:49.665Z,15.74
2023-10-01T15:50:18.169Z,15.71
2023-10-01T15:52:50.419Z,15.70
2023-10-01T15:55:33.270Z,15.69
2023-10-01T15:58:04.015Z,15.67
2023-10-01T16:00:33.826Z,15.65
2023-10-01T16:03:09.214Z,15.62
2023-10-01T16:05:41.450Z,15.60
2023-10-01T16:08:20.260Z,15.58
2023-10-01T16:11:01.606Z,15.58
2023-10-01T16:13:31.143Z,15.56
2023-10-01T16:16:06.324Z,15.55
2023-10-01T16:18:37.446Z,15.54
2023-10-01T16:21:06.227Z,15.52
2023-10-01T16:23:38.168Z,15.50
2023-10-01T16:26:15.874Z,15.49
2023-10-01T16:28:45.406Z,15.47
2023-10-01T16:31:17.352Z,15.45
2023-10-01T16:33:45.738Z,15.42
2023-10-01T16:36:22.810Z,15.40
2023-10-01T16:38:55.092Z,15.37
2023-10-01T16:41:23.404Z,15.36
2023-10-01T16:43:54.072Z,15.34
2023-10-01T16:46:22.641Z,15.32
2023-10-01T16:48:50.634Z,15.30
2023-10-01T16:51:18.103Z,15.30
2023-10-01T16:53:46.644Z,15.29
2023-10-01T16:56:14.610Z,15.29
2023-10-01T16:58:42.438Z,15.28
2023-10-01T17:01:15.217Z,15.27
2023-10-01T17:03:52.580Z,15.26
2023-10-01T17:06:20.292Z,15.26
2023-10-01T17:08:48.657Z,15.26
2023-10-01T17:11:17.219Z,15.25
2023-10-01T17:13:47.653Z,15.24
2023-10-01T17:16:19.671Z,15.23
2023-10-01T17:18:50.389Z,15.22
2023-10-01T17:21:18.728Z,15.20
2023-10-01T17:23:47.143Z,15.20
2023-10-01T17:26:15.088Z,15.19
2023-10-01T17:28:50.135Z,15.18
2023-10-01T17:31:21.150Z,15.18
2023-10-01T17:33:49.416Z,15.18
2023-10-01T17:36:20.062Z,15.17
2023-10-01T17:38:48.170Z,15.16
2023-10-01T17:41:22.142Z,15.15
2023-10-01T17:43:56.408Z,15.13
2023-10-01T17:46:25.042Z,15.12
2023-10-01T17:48:56.445Z,15.12
2023-10-01T17:51:25.934Z,15.12
2023-10-01T17:54:06.745Z,15.11
2023-10-01T17:56:37.792Z,15.11
2023-10-01T17:59:13.474Z,15.09
2023-10-01T18:01:42.463Z,15.07
2023-10-01T18:04:10.111Z,15.04
2023-10-01T18:06:43.152Z,15.03
2023-10-01T18:09:15.134Z,15.01
2023-10-01T18:11:42.646Z,15.00
2023-10-01T18:14:10.303Z,14.99
2023-10-01T18:16:37.879Z,14.98
2023-10-01T18:19:08.432Z,14.98
2023-10-01T18:21:39.787Z,14.97
2023-10-01T18:24:08.872Z,14.97
2023-10-01T18:26:37.675Z,14.96
2023-10-01T18:29:16.177Z,14.95
2023-10-01T18:31:50.262Z,14.93
2023-10-01T18:34:23.751Z,14.92
2023-10-01T18:36:51.557Z,14.90
2023-10-01T18:39:27.931Z,14.90
2023-10-01T18:41:56.121Z,14.89
2023-10-01T18:44:24.331Z,14.87
2023-10-01T18:46:52.087Z,14.86
2023-10-01T18:49:19.676Z,14.84
2023-10-01T18:51:52.026Z,14.83
2023-10-01T18:54:23.439Z,14.80
2023-10-01T18:56:51.127Z,14.80
2023-10-01T18:59:18.775Z,14.78
2023-10-01T19:01:46.935Z,14.77
2023-10-01T19:04:16.776Z,14.75
2023-10-01T19:06:47.395Z,14.73
2023-10-01T19:09:21.919Z,14.72
2023-10-01T19:11:50.164Z,14.69
2023-10-01T19:14:19.584Z,14.67
2023-10-01T19:16:49.922Z,14.64
2023-10-01T19:19:21.067Z,14.61
2023-10-01T19:21:52.815Z,14.59
2023-10-01T19:24:20.815Z,14.57
2023-10-01T19:26:48.617Z,14.56
2023-10-01T19:29:16.397Z,14.54
2023-10-01T19:31:44.328Z,14.51
2023-10-01T19:34:11.944Z,14.49
2023-10-01T19:36:40.064Z,14.47
2023-10-01T19:39:07.571Z,14.45
2023-10-01T19:41:34.992Z,14.42
2023-10-01T19:44:03.369Z,14.40
2023-10-01T19:46:32.751Z,14.39
2023-10-01T19:49:01.151Z,14.38
2023-10-01T19:51:28.568Z,14.36
2023-10-01T19:54:01.041Z,14.35
2023-10-01T19:56:28.819Z,14.33
2023-10-01T19:58:56.243Z,14.32
2023-10-01T20:01:23.736Z,14.30
2023-10-01T20:03:56.618Z,14.27
2023-10-01T20:06:24.581Z,14.25
2023-10-01T20:08:59.019Z,14.24
2023-10-01T20:11:32.886Z,14.23
2023-10-01T20:14:01.638Z,14.21
2023-10-01T20:16:39.877Z,14.19
2023-10-01T20:19:08.975Z,14.16
2023-10-01T20:21:36.802Z,14.14
2023-10-01T20:24:15.389Z,14.10
2023-10-01T20:26:43.877Z,14.07
2023-10-01T20:29:12.687Z,14.07
2023-10-01T20:31:40.715Z,14.07
2023-10-01T20:34:08.939Z,14.06
2023-10-01T20:36:39.013Z,14.05
2023-10-01T20:39:06.816Z,14.05
2023-10-01T20:41:34.275Z,14.04
2023-10-01T20:44:03.511Z,14.03
2023-10-01T20:46:31.651Z,14.02
2023-10-01T20:49:01.008Z,14.00
2023-10-01T20:51:35.116Z,13.99
2023-10-01T20:54:04.598Z,13.97
2023-10-01T20:56:40.241Z,13.95
2023-10-01T20:59:14.607Z,13.92
2023-10-01T21:01:49.823Z,13.89
2023-10-01T21:04:27.076Z,13.88
2023-10-01T21:06:55.380Z,13.85
2023-10-01T21:09:26.372Z,13.83
2023-10-01T21:12:04.698Z,13.81
2023-10-01T21:14:35.270Z,13.80
2023-10-01T21:17:09.472Z,13.79
2023-10-01T21:19:40.859Z,13.77
2023-10-01T21:22:10.614Z,13.76
2023-10-01T21:24:38.912Z,13.75
2023-10-01T21:27:12.240Z,13.75
2023-10-01T21:29:40.777Z,13.76
2023-10-01T21:32:08.230Z,13.75
2023-10-01T21:34:37.841Z,13.74
2023-10-01T21:37:08.667Z,13.75
2023-10-01T21:39:36.769Z,13.75
2023-10-01T21:42:04.381Z,13.75
2023-10-01T21:44:33.191Z,13.74
2023-10-01T21:47:01.144Z,13.73
2023-10-01T21:49:31.754Z,13.71
2023-10-01T21:52:04.956Z,13.70
2023-10-01T21:54:32.598Z,13.69
2023-10-01T21:57:00.955Z,13.67
2023-10-01T21:59:28.568Z,13.66
2023-10-01T22:02:02.972Z,13.63
2023-10-01T22:04:30.586Z,13.61
2023-10-01T22:07:00.870Z,13.60
2023-10-01T22:09:28.356Z,13.59
2023-10-01T22:11:56.101Z,13.59
2023-10-01T22:14:24.827Z,13.59
2023-10-01T22:16:55.219Z,13.60
2023-10-01T22:19:23.143Z,13.58
2023-10-01T22:21:51.560Z,13.56
2023-10-01T22:24:24.274Z,13.54
2023-10-01T22:26:51.843Z,13.52
2023-10-01T22:29:22.230Z,13.50
2023-10-01T22:31:51.888Z,13.48
2023-10-01T22:34:30.188Z,13.47
2023-10-01T22:36:58.243Z,13.45
2023-10-01T22:39:38.347Z,13.43
2023-10-01T22:42:25.138Z,13.40
2023-10-01T22:44:54.518Z,13.36
2023-10-01T22:47:22.111Z,13.34
2023-10-01T22:49:57.156Z,13.31
2023-10-01T22:52:31.564Z,13.28
2023-10-01T22:55:02.869Z,13.24
2023-10-01T22:57:43.288Z,13.21
2023-10-01T23:00:12.605Z,13.19
2023-10-01T23:02:48.633Z,13.17
2023-10-01T23:05:16.864Z,13.15
2023-10-01T23:07:47.798Z,13.11
2023-10-01T23:10:21.701Z,13.09
2023-10-01T23:12:50.119Z,13.07
2023-10-01T23:15:18.024Z,13.06
2023-10-01T23:18:00.937Z,13.04
2023-10-01T23:20:34.421Z,13.02
2023-10-01T23:23:01.869Z,13.01
2023-10-01T23:25:32.617Z,12.97
2023-10-01T23:28:03.007Z,12.93
2023-10-01T23:30:41.194Z,12.91
2023-10-01T23:33:11.754Z,12.89
2023-10-01T23:35:58.794Z,12.87
2023-10-01T23:38:37.656Z,12.84
2023-10-01T23:41:28.476Z,12.80
2023-10-01T23:43:56.440Z,12.76
2023-10-01T23:46:24.132Z,12.74
2023-10-01T23:48:52.203Z,12.71
2023-10-01T23:51:22.056Z,12.69
2023-10-01T23:53:53.992Z,12.66
2023-10-01T23:56:34.254Z,12.63
2023-10-01T23:59:20.299Z,12.59
